| time (UTC) | temp C | wind direction | speed KPH | gust KPH | rain 1hr cm | rain 24hr cm | rain mn cm | humidity % | barometer mb |
| 20260510131517 | 25 | 142 | 8.0 | 16.1 | 0.00 | 0.36 | 0.00 | 89 | 1012.6 |
| 20260510130019 | 25 | 131 | 6.4 | 12.9 | 0.00 | 0.36 | 0.00 | 89 | 1012.4 |
| 20260510124523 | 25 | 140 | 6.4 | 12.9 | 0.00 | 0.76 | 0.00 | 89 | 1012.3 |
| 20260510123003 | 25 | 141 | 3.2 | 8.0 | 0.00 | 0.76 | 0.00 | 89 | 1012.3 |
| 20260510121507 | 25 | 141 | 4.8 | 11.3 | 0.00 | 0.76 | 0.00 | 89 | 1012.1 |
| 20260510120010 | 25 | 141 | 6.4 | 12.9 | 0.00 | 0.76 | 0.00 | 89 | 1012.0 |
| 20260510114511 | 25 | 141 | 4.8 | 11.3 | 0.00 | 1.09 | 0.00 | 89 | 1011.9 |
| 20260510113019 | 25 | 141 | 3.2 | 11.3 | 0.00 | 1.09 | 0.00 | 89 | 1011.9 |
| 20260510111522 | 25 | 141 | 4.8 | 11.3 | 0.00 | 1.09 | 0.00 | 89 | 1011.8 |
| 20260510110036 | 25 | 141 | 4.8 | 8.0 | 0.00 | 1.09 | 0.00 | 89 | 1011.8 |
| 20260510104535 | 25 | 141 | 4.8 | 8.0 | 0.00 | 1.32 | 0.00 | 89 | 1011.8 |
| 20260510103046 | 25 | 141 | 4.8 | 12.9 | 0.00 | 1.32 | 0.00 | 89 | 1011.7 |
| 20260510101544 | 25 | 141 | 3.2 | 8.0 | 0.00 | 1.32 | 0.00 | 89 | 1011.8 |
| 20260510100057 | 25 | 141 | 3.2 | 8.0 | 0.00 | 1.32 | 0.00 | 89 | 1011.8 |
| 20260510094552 | 25 | 141 | 3.2 | 6.4 | 0.00 | 1.32 | 0.00 | 89 | 1011.8 |
| 20260510093059 | 25 | 141 | 3.2 | 8.0 | 0.00 | 1.32 | 0.00 | 88 | 1011.7 |
| 20260510093009 | 25 | 141 | 3.2 | 8.0 | 0.00 | 1.32 | 0.00 | 88 | 1011.7 |
| 20260510091601 | 25 | 141 | 3.2 | 8.0 | 0.00 | 1.32 | 0.00 | 88 | 1011.6 |
| 20260510091508 | 25 | 141 | 3.2 | 8.0 | 0.00 | 1.32 | 0.00 | 88 | 1011.7 |
| 20260510090053 | 25 | 141 | 4.8 | 6.4 | 0.00 | 1.32 | 0.00 | 88 | 1011.5 |
| 20260510084601 | 25 | 141 | 3.2 | 8.0 | 0.00 | 1.32 | 0.00 | 88 | 1011.6 |
| 20260510083005 | 25 | 141 | 3.2 | 8.0 | 0.00 | 1.32 | 0.00 | 88 | 1011.5 |
| 20260510081504 | 25 | 141 | 3.2 | 12.9 | 0.00 | 1.32 | 0.00 | 88 | 1011.6 |
| 20260510080011 | 25 | 141 | 3.2 | 11.3 | 0.00 | 1.32 | 0.00 | 87 | 1011.8 |
| 20260510074515 | 25 | 141 | 4.8 | 11.3 | 0.00 | 1.32 | 1.32 | 87 | 1011.7 |
| 20260510073021 | 25 | 137 | 6.4 | 12.9 | 0.00 | 1.32 | 1.32 | 87 | 1011.8 |
| 20260510071508 | 25 | 138 | 4.8 | 8.0 | 0.00 | 1.32 | 1.32 | 87 | 1011.9 |
| 20260510070022 | 25 | 138 | 4.8 | 11.3 | 0.00 | 1.32 | 1.32 | 86 | 1011.9 |
| 20260510064507 | 25 | 135 | 4.8 | 12.9 | 0.00 | 1.32 | 1.32 | 86 | 1012.0 |
| 20260510063011 | 25 | 122 | 9.7 | 17.7 | 0.00 | 1.32 | 1.32 | 85 | 1012.2 |
| 20260510061513 | 25 | 121 | 9.7 | 17.7 | 0.00 | 1.32 | 1.32 | 85 | 1012.3 |
| 20260510060017 | 25 | 119 | 9.7 | 17.7 | 0.00 | 1.32 | 1.32 | 84 | 1012.2 |
| 20260510054523 | 25 | 123 | 8.0 | 16.1 | 0.00 | 1.32 | 1.32 | 84 | 1012.3 |
| 20260510053019 | 25 | 132 | 9.7 | 16.1 | 0.00 | 1.32 | 1.32 | 84 | 1012.0 |
| 20260510051536 | 25 | 165 | 11.3 | 19.3 | 0.00 | 1.32 | 1.32 | 84 | 1011.4 |
| 20260510050029 | 25 | 136 | 11.3 | 19.3 | 0.00 | 1.32 | 1.32 | 83 | 1011.7 |
| 20260510044537 | 25 | 136 | 6.4 | 12.9 | 0.00 | 1.32 | 1.32 | 83 | 1011.9 |
| 20260510043050 | 25 | 141 | 11.3 | 17.7 | 0.00 | 1.32 | 1.32 | 82 | 1011.4 |
| 20260510041605 | 25 | 119 | 8.0 | 19.3 | 0.00 | 1.32 | 1.32 | 82 | 1011.4 |
| 20260510040033 | 25 | 121 | 11.3 | 20.9 | 0.00 | 1.32 | 1.32 | 82 | 1011.5 |
| 20260510034539 | 25 | 122 | 9.7 | 14.5 | 0.00 | 1.32 | 1.32 | 81 | 1011.4 |
| 20260510033046 | 25 | 118 | 11.3 | 17.7 | 0.00 | 1.32 | 1.32 | 80 | 1011.2 |
| 20260510031556 | 25 | 116 | 12.9 | 19.3 | 0.00 | 1.32 | 1.32 | 79 | 1011.1 |
| 20260510030058 | 25 | 120 | 12.9 | 20.9 | 0.00 | 1.32 | 1.32 | 79 | 1011.0 |
| 20260510024600 | 25 | 117 | 12.9 | 20.9 | 0.00 | 1.32 | 1.32 | 78 | 1010.7 |
| 20260510023059 | 26 | 129 | 14.5 | 20.9 | 0.00 | 1.32 | 1.32 | 76 | 1010.5 |
| 20260510021504 | 26 | 123 | 12.9 | 19.3 | 0.00 | 1.32 | 1.32 | 75 | 1010.5 |
| 20260510020004 | 26 | 135 | 14.5 | 22.5 | 0.00 | 1.32 | 1.32 | 74 | 1010.4 |
| 20260510014520 | 26 | 129 | 16.1 | 24.1 | 0.00 | 1.32 | 1.32 | 75 | 1010.1 |
| 20260510013105 | 26 | 128 | 11.3 | 17.7 | 0.00 | 1.32 | 1.32 | 75 | 1009.8 |
| 20260510011556 | 26 | 115 | 12.9 | 19.3 | 0.00 | 1.32 | 1.32 | 73 | 1009.9 |
| 20260510010005 | 26 | 144 | 8.0 | 17.7 | 0.00 | 1.32 | 1.32 | 71 | 1009.9 |
| 20260510004506 | 26 | 134 | 9.7 | 17.7 | 0.00 | 1.32 | 1.32 | 72 | 1010.0 |
| 20260510003018 | 27 | 124 | 8.0 | 14.5 | 0.00 | 1.32 | 1.32 | 72 | 1010.0 |
| 20260510001527 | 26 | 126 | 11.3 | 16.1 | 0.00 | 1.32 | 1.32 | 72 | 1010.2 |
| 20260510000030 | 27 | 122 | 11.3 | 17.7 | 0.00 | 1.32 | 1.32 | 72 | 1010.0 |
| 20260509234550 | 27 | 145 | 9.7 | 19.3 | 0.00 | 1.32 | 1.32 | 71 | 1010.1 |
| 20260509233044 | 27 | 121 | 11.3 | 19.3 | 0.00 | 1.32 | 1.32 | 70 | 1010.2 |
| 20260509231551 | 27 | 126 | 9.7 | 19.3 | 0.00 | 1.32 | 1.32 | 71 | 1010.3 |
| 20260509230059 | 27 | 115 | 12.9 | 20.9 | 0.00 | 1.32 | 1.32 | 72 | 1010.3 |
| 20260509230006 | 27 | 111 | 12.9 | 20.9 | 0.00 | 1.32 | 1.32 | 72 | 1010.3 |
| 20260509224551 | 27 | 122 | 12.9 | 20.9 | 0.00 | 1.32 | 1.32 | 70 | 1010.3 |
| 20260509223031 | 27 | 111 | 12.9 | 20.9 | 0.00 | 1.32 | 1.32 | 69 | 1010.4 |
| 20260509221555 | 27 | 103 | 11.3 | 20.9 | 0.00 | 1.32 | 1.32 | 71 | 1010.5 |
| 20260509220035 | 28 | 111 | 16.1 | 25.7 | 0.00 | 1.32 | 1.32 | 69 | 1010.3 |
| 20260509214543 | 28 | 98 | 11.3 | 20.9 | 0.00 | 1.32 | 1.32 | 63 | 1010.1 |
| 20260509213048 | 28 | 110 | 12.9 | 20.9 | 0.00 | 1.32 | 1.32 | 68 | 1010.3 |
| 20260509211554 | 28 | 111 | 12.9 | 19.3 | 0.00 | 1.32 | 1.32 | 65 | 1010.3 |
| 20260509210100 | 28 | 113 | 12.9 | 20.9 | 0.00 | 1.32 | 1.32 | 61 | 1010.2 |
| 20260509204506 | 28 | 113 | 11.3 | 17.7 | 0.00 | 1.32 | 1.32 | 59 | 1010.3 |
| 20260509203006 | 29 | 112 | 9.7 | 16.1 | 0.00 | 1.32 | 1.32 | 58 | 1010.3 |
| 20260509201510 | 28 | 105 | 9.7 | 14.5 | 0.00 | 1.32 | 1.32 | 56 | 1010.4 |
| 20260509200012 | 29 | 111 | 9.7 | 17.7 | 0.00 | 1.32 | 1.32 | 53 | 1010.4 |
| 20260509194557 | 30 | 98 | 11.3 | 16.1 | 0.00 | 1.32 | 1.32 | 52 | 1010.8 |
| 20260509193059 | 30 | 109 | 9.7 | 16.1 | 0.00 | 1.32 | 1.32 | 57 | 1010.8 |
| 20260509191606 | 30 | 107 | 11.3 | 16.1 | 0.00 | 1.32 | 1.32 | 52 | 1010.6 |
| 20260509190048 | 31 | 125 | 4.8 | 14.5 | 0.00 | 1.32 | 1.32 | 49 | 1010.4 |
| 20260509184541 | 29 | 317 | 3.2 | 9.7 | 0.00 | 1.32 | 1.32 | 55 | 1010.5 |
| 20260509183044 | 28 | 323 | 8.0 | 17.7 | 0.00 | 1.32 | 1.32 | 56 | 1010.5 |
| 20260509181555 | 28 | 321 | 14.5 | 19.3 | 0.00 | 1.32 | 1.32 | 55 | 1010.4 |
| 20260509180051 | 28 | 320 | 8.0 | 16.1 | 0.00 | 1.32 | 1.32 | 57 | 1010.5 |
| 20260509174551 | 28 | 317 | 6.4 | 12.9 | 0.00 | 1.32 | 1.32 | 59 | 1010.6 |
| 20260509173104 | 27 | 319 | 6.4 | 14.5 | 0.00 | 1.32 | 1.32 | 61 | 1010.6 |
| 20260509173010 | 27 | 319 | 6.4 | 14.5 | 0.00 | 1.32 | 1.32 | 61 | 1010.6 |
| 20260509171617 | 27 | 314 | 1.6 | 12.9 | 0.00 | 1.32 | 1.32 | 63 | 1010.8 |
| 20260509170100 | 26 | 313 | 3.2 | 16.1 | 0.00 | 1.32 | 1.32 | 66 | 1010.9 |
| 20260509170011 | 26 | 313 | 3.2 | 16.1 | 0.00 | 1.32 | 1.32 | 66 | 1010.9 |
| 20260509164504 | 26 | 309 | 11.3 | 19.3 | 0.00 | 1.32 | 1.32 | 68 | 1011.3 |
| 20260509163003 | 26 | 309 | 11.3 | 17.7 | 0.00 | 1.32 | 1.32 | 69 | 1011.4 |
| 20260509161510 | 26 | 312 | 12.9 | 16.1 | 0.00 | 1.32 | 1.32 | 71 | 1011.5 |
| 20260509160017 | 26 | 119 | 0.0 | 6.4 | 0.00 | 1.32 | 1.32 | 68 | 1011.4 |
| 20260509154513 | 26 | 119 | 0.0 | 3.2 | 0.00 | 1.32 | 1.32 | 72 | 1011.0 |
| 20260509153015 | 26 | 119 | 1.6 | 6.4 | 0.00 | 1.32 | 1.32 | 74 | 1010.5 |
| 20260509151519 | 25 | 119 | 6.4 | 17.7 | 0.00 | 1.32 | 1.32 | 74 | 1010.3 |
| 20260509150025 | 25 | 121 | 12.9 | 20.9 | 0.00 | 1.32 | 1.32 | 75 | 1009.9 |
| 20260509144524 | 25 | 119 | 12.9 | 25.7 | 0.00 | 1.32 | 1.32 | 78 | 1009.8 |
| 20260509143025 | 24 | 113 | 20.9 | 27.4 | 0.00 | 1.32 | 1.32 | 78 | 1009.8 |
| 20260509141535 | 24 | 121 | 17.7 | 27.4 | 0.05 | 1.32 | 1.32 | 78 | 1009.5 |
| 20260509140036 | 23 | 96 | 19.3 | 29.0 | 0.28 | 1.32 | 1.32 | 78 | 1009.9 |
| 20260509134550 | 23 | 101 | 20.9 | 38.6 | 0.41 | 1.32 | 1.32 | 81 | 1009.7 |
| 20260509133038 | 22 | 104 | 24.1 | 35.4 | 0.53 | 1.32 | 1.32 | 84 | 1009.8 |